sensor_id;sensor_type;location;lat;lon;timestamp;temperature;humidity
18321;DHT22;54904;54.350;18.664;2022-07-22T00:01:59;27.00;82.20
18321;DHT22;54904;54.350;18.664;2022-07-22T00:04:25;27.00;82.10
18321;DHT22;54904;54.350;18.664;2022-07-22T00:06:53;27.00;82.80
18321;DHT22;54904;54.350;18.664;2022-07-22T00:09:21;27.00;82.00
18321;DHT22;54904;54.350;18.664;2022-07-22T00:11:48;27.00;82.00
18321;DHT22;54904;54.350;18.664;2022-07-22T00:14:15;27.00;82.00
18321;DHT22;54904;54.350;18.664;2022-07-22T00:16:43;26.90;81.90
18321;DHT22;54904;54.350;18.664;2022-07-22T00:19:10;26.90;82.00
18321;DHT22;54904;54.350;18.664;2022-07-22T00:21:37;26.90;82.10
18321;DHT22;54904;54.350;18.664;2022-07-22T00:24:04;26.80;82.00
18321;DHT22;54904;54.350;18.664;2022-07-22T00:26:33;26.90;82.10
18321;DHT22;54904;54.350;18.664;2022-07-22T00:29:00;26.80;82.10
18321;DHT22;54904;54.350;18.664;2022-07-22T00:31:27;26.80;82.10
18321;DHT22;54904;54.350;18.664;2022-07-22T00:33:56;26.80;82.30
18321;DHT22;54904;54.350;18.664;2022-07-22T00:36:24;26.80;82.40
18321;DHT22;54904;54.350;18.664;2022-07-22T00:38:51;26.70;82.40
18321;DHT22;54904;54.350;18.664;2022-07-22T00:41:19;26.70;82.50
18321;DHT22;54904;54.350;18.664;2022-07-22T00:43:52;26.60;82.70
18321;DHT22;54904;54.350;18.664;2022-07-22T00:46:19;26.60;82.90
18321;DHT22;54904;54.350;18.664;2022-07-22T00:48:46;26.60;83.00
18321;DHT22;54904;54.350;18.664;2022-07-22T00:51:14;26.60;83.10
18321;DHT22;54904;54.350;18.664;2022-07-22T00:53:41;26.60;83.10
18321;DHT22;54904;54.350;18.664;2022-07-22T00:56:09;26.50;83.20
18321;DHT22;54904;54.350;18.664;2022-07-22T00:58:37;26.50;83.30
18321;DHT22;54904;54.350;18.664;2022-07-22T01:01:05;26.50;83.40
18321;DHT22;54904;54.350;18.664;2022-07-22T01:03:33;26.40;84.30
18321;DHT22;54904;54.350;18.664;2022-07-22T01:06:00;26.40;83.70
18321;DHT22;54904;54.350;18.664;2022-07-22T01:08:27;26.40;84.00
18321;DHT22;54904;54.350;18.664;2022-07-22T01:10:54;26.40;84.10
18321;DHT22;54904;54.350;18.664;2022-07-22T01:13:32;26.30;84.30
18321;DHT22;54904;54.350;18.664;2022-07-22T01:15:59;26.30;84.30
18321;DHT22;54904;54.350;18.664;2022-07-22T01:18:27;26.30;84.50
18321;DHT22;54904;54.350;18.664;2022-07-22T01:20:56;26.30;84.70
18321;DHT22;54904;54.350;18.664;2022-07-22T01:23:23;26.20;84.80
18321;DHT22;54904;54.350;18.664;2022-07-22T01:25:51;26.20;85.00
18321;DHT22;54904;54.350;18.664;2022-07-22T01:28:18;26.20;85.10
18321;DHT22;54904;54.350;18.664;2022-07-22T01:30:45;26.10;85.20
18321;DHT22;54904;54.350;18.664;2022-07-22T01:33:12;26.10;85.50
18321;DHT22;54904;54.350;18.664;2022-07-22T01:35:39;26.00;85.70
18321;DHT22;54904;54.350;18.664;2022-07-22T01:38:08;26.00;85.90
18321;DHT22;54904;54.350;18.664;2022-07-22T01:40:36;26.00;86.00
18321;DHT22;54904;54.350;18.664;2022-07-22T01:43:03;26.00;86.20
18321;DHT22;54904;54.350;18.664;2022-07-22T01:45:30;26.00;86.40
18321;DHT22;54904;54.350;18.664;2022-07-22T01:47:57;25.90;86.60
18321;DHT22;54904;54.350;18.664;2022-07-22T01:50:25;25.90;86.90
18321;DHT22;54904;54.350;18.664;2022-07-22T01:52:52;25.80;87.20
18321;DHT22;54904;54.350;18.664;2022-07-22T01:55:22;25.80;87.50
18321;DHT22;54904;54.350;18.664;2022-07-22T01:57:49;25.70;87.80
18321;DHT22;54904;54.350;18.664;2022-07-22T02:00:25;25.70;88.10
18321;DHT22;54904;54.350;18.664;2022-07-22T02:02:52;25.70;88.40
18321;DHT22;54904;54.350;18.664;2022-07-22T02:05:19;25.70;88.60
18321;DHT22;54904;54.350;18.664;2022-07-22T02:07:46;25.70;88.90
18321;DHT22;54904;54.350;18.664;2022-07-22T02:10:14;25.60;89.00
18321;DHT22;54904;54.350;18.664;2022-07-22T02:12:43;25.70;89.20
18321;DHT22;54904;54.350;18.664;2022-07-22T02:15:10;25.70;89.30
18321;DHT22;54904;54.350;18.664;2022-07-22T02:17:38;25.70;89.60
18321;DHT22;54904;54.350;18.664;2022-07-22T02:20:08;25.60;89.70
18321;DHT22;54904;54.350;18.664;2022-07-22T02:22:35;25.60;90.00
18321;DHT22;54904;54.350;18.664;2022-07-22T02:25:03;25.50;90.00
18321;DHT22;54904;54.350;18.664;2022-07-22T02:27:30;25.50;90.20
18321;DHT22;54904;54.350;18.664;2022-07-22T02:29:59;25.40;90.30
18321;DHT22;54904;54.350;18.664;2022-07-22T02:32:26;25.40;90.40
18321;DHT22;54904;54.350;18.664;2022-07-22T02:34:53;25.30;90.50
18321;DHT22;54904;54.350;18.664;2022-07-22T02:37:20;25.30;90.70
18321;DHT22;54904;54.350;18.664;2022-07-22T02:39:47;25.40;90.70
18321;DHT22;54904;54.350;18.664;2022-07-22T02:42:15;25.30;90.70
18321;DHT22;54904;54.350;18.664;2022-07-22T02:44:45;25.30;90.80
18321;DHT22;54904;54.350;18.664;2022-07-22T02:47:13;25.30;90.90
18321;DHT22;54904;54.350;18.664;2022-07-22T02:49:41;25.30;91.10
18321;DHT22;54904;54.350;18.664;2022-07-22T02:52:08;25.30;91.50
18321;DHT22;54904;54.350;18.664;2022-07-22T02:54:35;25.30;91.20
18321;DHT22;54904;54.350;18.664;2022-07-22T02:57:03;25.30;91.20
18321;DHT22;54904;54.350;18.664;2022-07-22T02:59:30;25.30;91.30
18321;DHT22;54904;54.350;18.664;2022-07-22T03:01:57;25.20;91.30
18321;DHT22;54904;54.350;18.664;2022-07-22T03:04:26;25.20;91.40
18321;DHT22;54904;54.350;18.664;2022-07-22T03:06:53;25.20;91.40
18321;DHT22;54904;54.350;18.664;2022-07-22T03:09:23;25.30;91.40
18321;DHT22;54904;54.350;18.664;2022-07-22T03:11:51;25.30;91.40
18321;DHT22;54904;54.350;18.664;2022-07-22T03:14:18;25.30;91.40
18321;DHT22;54904;54.350;18.664;2022-07-22T03:16:45;25.30;91.30
18321;DHT22;54904;54.350;18.664;2022-07-22T03:19:12;25.30;91.30
18321;DHT22;54904;54.350;18.664;2022-07-22T03:21:42;25.30;91.20
18321;DHT22;54904;54.350;18.664;2022-07-22T03:24:10;25.30;91.30
18321;DHT22;54904;54.350;18.664;2022-07-22T03:26:36;25.30;91.60
18321;DHT22;54904;54.350;18.664;2022-07-22T03:29:06;25.30;91.30
18321;DHT22;54904;54.350;18.664;2022-07-22T03:31:33;25.30;91.20
18321;DHT22;54904;54.350;18.664;2022-07-22T03:34:01;25.30;91.20
18321;DHT22;54904;54.350;18.664;2022-07-22T03:36:33;25.30;91.20
18321;DHT22;54904;54.350;18.664;2022-07-22T03:39:01;25.30;91.20
18321;DHT22;54904;54.350;18.664;2022-07-22T03:41:29;25.30;91.20
18321;DHT22;54904;54.350;18.664;2022-07-22T03:43:55;25.30;91.20
18321;DHT22;54904;54.350;18.664;2022-07-22T03:46:23;25.30;91.20
18321;DHT22;54904;54.350;18.664;2022-07-22T03:48:50;25.30;91.20
18321;DHT22;54904;54.350;18.664;2022-07-22T03:51:18;25.30;91.20
18321;DHT22;54904;54.350;18.664;2022-07-22T03:53:45;25.30;91.20
18321;DHT22;54904;54.350;18.664;2022-07-22T03:56:14;25.30;91.10
18321;DHT22;54904;54.350;18.664;2022-07-22T03:58:41;25.30;91.10
18321;DHT22;54904;54.350;18.664;2022-07-22T04:01:09;25.30;91.10
18321;DHT22;54904;54.350;18.664;2022-07-22T04:03:40;25.40;91.20
18321;DHT22;54904;54.350;18.664;2022-07-22T04:06:12;25.40;91.10
18321;DHT22;54904;54.350;18.664;2022-07-22T04:08:56;25.40;91.10
18321;DHT22;54904;54.350;18.664;2022-07-22T04:11:25;25.40;91.10
18321;DHT22;54904;54.350;18.664;2022-07-22T04:13:53;25.40;91.20
18321;DHT22;54904;54.350;18.664;2022-07-22T04:16:20;25.40;91.20
18321;DHT22;54904;54.350;18.664;2022-07-22T04:18:55;25.40;91.60
18321;DHT22;54904;54.350;18.664;2022-07-22T04:21:38;25.40;91.20
18321;DHT22;54904;54.350;18.664;2022-07-22T04:24:09;25.50;91.30
18321;DHT22;54904;54.350;18.664;2022-07-22T04:26:38;25.50;91.50
18321;DHT22;54904;54.350;18.664;2022-07-22T04:29:05;25.50;91.30
18321;DHT22;54904;54.350;18.664;2022-07-22T04:31:33;25.50;91.30
18321;DHT22;54904;54.350;18.664;2022-07-22T04:34:16;25.50;91.40
18321;DHT22;54904;54.350;18.664;2022-07-22T04:36:44;25.50;91.50
18321;DHT22;54904;54.350;18.664;2022-07-22T04:39:11;25.60;91.60
18321;DHT22;54904;54.350;18.664;2022-07-22T04:41:46;25.60;91.50
18321;DHT22;54904;54.350;18.664;2022-07-22T04:44:16;25.60;91.60
18321;DHT22;54904;54.350;18.664;2022-07-22T04:46:43;25.60;91.70
18321;DHT22;54904;54.350;18.664;2022-07-22T04:49:10;25.70;91.70
18321;DHT22;54904;54.350;18.664;2022-07-22T04:51:37;25.70;91.70
18321;DHT22;54904;54.350;18.664;2022-07-22T04:54:08;25.70;91.70
18321;DHT22;54904;54.350;18.664;2022-07-22T04:56:39;25.70;91.70
18321;DHT22;54904;54.350;18.664;2022-07-22T04:59:09;25.70;91.70
18321;DHT22;54904;54.350;18.664;2022-07-22T05:01:36;25.80;91.80
18321;DHT22;54904;54.350;18.664;2022-07-22T05:04:05;25.80;92.10
18321;DHT22;54904;54.350;18.664;2022-07-22T05:06:33;25.80;91.80
18321;DHT22;54904;54.350;18.664;2022-07-22T05:09:01;25.90;91.70
18321;DHT22;54904;54.350;18.664;2022-07-22T05:11:30;25.90;91.70
18321;DHT22;54904;54.350;18.664;2022-07-22T05:13:58;25.90;91.70
18321;DHT22;54904;54.350;18.664;2022-07-22T05:16:26;25.90;91.70
18321;DHT22;54904;54.350;18.664;2022-07-22T05:18:53;25.90;91.70
18321;DHT22;54904;54.350;18.664;2022-07-22T05:21:20;25.90;91.80
18321;DHT22;54904;54.350;18.664;2022-07-22T05:23:47;25.90;91.80
18321;DHT22;54904;54.350;18.664;2022-07-22T05:26:16;25.90;91.80
18321;DHT22;54904;54.350;18.664;2022-07-22T05:28:43;25.90;91.80
18321;DHT22;54904;54.350;18.664;2022-07-22T05:31:10;26.00;91.80
18321;DHT22;54904;54.350;18.664;2022-07-22T05:33:39;26.00;91.80
18321;DHT22;54904;54.350;18.664;2022-07-22T05:36:22;26.00;91.80
18321;DHT22;54904;54.350;18.664;2022-07-22T05:38:50;26.00;91.80
18321;DHT22;54904;54.350;18.664;2022-07-22T05:41:17;26.10;91.80
18321;DHT22;54904;54.350;18.664;2022-07-22T05:43:44;26.10;91.80
18321;DHT22;54904;54.350;18.664;2022-07-22T05:46:12;26.10;91.70
18321;DHT22;54904;54.350;18.664;2022-07-22T05:48:40;26.10;91.70
18321;DHT22;54904;54.350;18.664;2022-07-22T05:51:11;26.10;91.60
18321;DHT22;54904;54.350;18.664;2022-07-22T05:53:39;26.20;91.50
18321;DHT22;54904;54.350;18.664;2022-07-22T05:56:07;26.20;91.40
18321;DHT22;54904;54.350;18.664;2022-07-22T05:58:36;26.20;91.50
18321;DHT22;54904;54.350;18.664;2022-07-22T06:01:03;26.20;91.40
18321;DHT22;54904;54.350;18.664;2022-07-22T06:03:31;26.20;91.60
18321;DHT22;54904;54.350;18.664;2022-07-22T06:06:01;26.20;91.60
18321;DHT22;54904;54.350;18.664;2022-07-22T06:08:30;26.10;91.80
18321;DHT22;54904;54.350;18.664;2022-07-22T06:10:58;26.10;91.90
18321;DHT22;54904;54.350;18.664;2022-07-22T06:13:26;26.20;91.90
18321;DHT22;54904;54.350;18.664;2022-07-22T06:15:53;26.20;92.00
18321;DHT22;54904;54.350;18.664;2022-07-22T06:18:20;26.20;92.10
18321;DHT22;54904;54.350;18.664;2022-07-22T06:20:47;26.20;92.30
18321;DHT22;54904;54.350;18.664;2022-07-22T06:23:16;26.10;92.50
18321;DHT22;54904;54.350;18.664;2022-07-22T06:25:43;26.10;92.80
18321;DHT22;54904;54.350;18.664;2022-07-22T06:28:20;26.10;93.10
18321;DHT22;54904;54.350;18.664;2022-07-22T06:30:47;26.10;93.40
18321;DHT22;54904;54.350;18.664;2022-07-22T06:33:16;26.00;93.80
18321;DHT22;54904;54.350;18.664;2022-07-22T06:35:44;26.00;94.20
18321;DHT22;54904;54.350;18.664;2022-07-22T06:38:11;25.90;94.50
18321;DHT22;54904;54.350;18.664;2022-07-22T06:40:58;25.80;94.70
18321;DHT22;54904;54.350;18.664;2022-07-22T06:43:54;25.80;94.90
18321;DHT22;54904;54.350;18.664;2022-07-22T06:46:42;25.80;95.20
18321;DHT22;54904;54.350;18.664;2022-07-22T06:49:10;25.70;95.60
18321;DHT22;54904;54.350;18.664;2022-07-22T06:51:37;25.70;95.80
18321;DHT22;54904;54.350;18.664;2022-07-22T06:54:05;25.60;96.10
18321;DHT22;54904;54.350;18.664;2022-07-22T06:56:33;25.60;96.30
18321;DHT22;54904;54.350;18.664;2022-07-22T06:59:00;25.60;96.50
18321;DHT22;54904;54.350;18.664;2022-07-22T07:01:27;25.70;96.80
18321;DHT22;54904;54.350;18.664;2022-07-22T07:03:59;25.70;97.00
18321;DHT22;54904;54.350;18.664;2022-07-22T07:06:26;25.70;97.20
18321;DHT22;54904;54.350;18.664;2022-07-22T07:09:02;25.70;97.50
18321;DHT22;54904;54.350;18.664;2022-07-22T07:11:30;25.70;97.80
18321;DHT22;54904;54.350;18.664;2022-07-22T07:14:00;25.70;98.20
18321;DHT22;54904;54.350;18.664;2022-07-22T07:16:27;25.70;98.20
18321;DHT22;54904;54.350;18.664;2022-07-22T07:18:55;25.70;98.30
18321;DHT22;54904;54.350;18.664;2022-07-22T07:21:22;25.70;98.40
18321;DHT22;54904;54.350;18.664;2022-07-22T07:23:49;25.70;98.60
18321;DHT22;54904;54.350;18.664;2022-07-22T07:26:17;25.60;99.00
18321;DHT22;54904;54.350;18.664;2022-07-22T07:28:46;25.60;99.00
18321;DHT22;54904;54.350;18.664;2022-07-22T07:31:31;25.50;99.10
18321;DHT22;54904;54.350;18.664;2022-07-22T07:34:02;25.50;99.30
18321;DHT22;54904;54.350;18.664;2022-07-22T07:36:29;25.50;99.60
18321;DHT22;54904;54.350;18.664;2022-07-22T07:38:56;25.40;99.90
18321;DHT22;54904;54.350;18.664;2022-07-22T07:41:24;25.30;99.90
18321;DHT22;54904;54.350;18.664;2022-07-22T07:46:39;25.30;99.90
18321;DHT22;54904;54.350;18.664;2022-07-22T07:49:07;25.30;99.90
18321;DHT22;54904;54.350;18.664;2022-07-22T07:51:35;25.30;99.90
18321;DHT22;54904;54.350;18.664;2022-07-22T07:54:02;25.20;99.90
18321;DHT22;54904;54.350;18.664;2022-07-22T07:56:29;25.20;99.90
18321;DHT22;54904;54.350;18.664;2022-07-22T07:58:56;25.20;99.90
18321;DHT22;54904;54.350;18.664;2022-07-22T08:01:24;25.10;99.90
18321;DHT22;54904;54.350;18.664;2022-07-22T08:03:52;25.10;99.90
18321;DHT22;54904;54.350;18.664;2022-07-22T08:06:19;25.10;99.90
18321;DHT22;54904;54.350;18.664;2022-07-22T08:08:46;25.10;99.90
18321;DHT22;54904;54.350;18.664;2022-07-22T08:11:19;25.10;99.90
18321;DHT22;54904;54.350;18.664;2022-07-22T08:13:54;25.00;99.90
18321;DHT22;54904;54.350;18.664;2022-07-22T08:16:59;25.00;99.90
18321;DHT22;54904;54.350;18.664;2022-07-22T08:19:28;25.00;99.90
18321;DHT22;54904;54.350;18.664;2022-07-22T08:21:55;24.90;99.90
18321;DHT22;54904;54.350;18.664;2022-07-22T08:24:29;24.90;99.90
18321;DHT22;54904;54.350;18.664;2022-07-22T08:26:59;25.00;99.90
18321;DHT22;54904;54.350;18.664;2022-07-22T08:29:28;25.00;99.90
18321;DHT22;54904;54.350;18.664;2022-07-22T08:31:55;25.00;99.90
18321;DHT22;54904;54.350;18.664;2022-07-22T08:34:23;25.00;99.90
18321;DHT22;54904;54.350;18.664;2022-07-22T08:36:52;25.10;99.90
18321;DHT22;54904;54.350;18.664;2022-07-22T08:39:19;25.10;99.90
18321;DHT22;54904;54.350;18.664;2022-07-22T08:41:47;25.10;99.90
18321;DHT22;54904;54.350;18.664;2022-07-22T08:44:14;25.20;99.90
18321;DHT22;54904;54.350;18.664;2022-07-22T08:46:44;25.20;99.90
18321;DHT22;54904;54.350;18.664;2022-07-22T08:49:18;25.20;99.90
18321;DHT22;54904;54.350;18.664;2022-07-22T08:51:57;25.30;99.90
18321;DHT22;54904;54.350;18.664;2022-07-22T08:54:27;25.20;99.90
18321;DHT22;54904;54.350;18.664;2022-07-22T08:56:55;25.20;99.90
18321;DHT22;54904;54.350;18.664;2022-07-22T08:59:24;25.20;99.90
18321;DHT22;54904;54.350;18.664;2022-07-22T09:02:05;25.20;99.90
18321;DHT22;54904;54.350;18.664;2022-07-22T09:04:50;25.30;99.90
18321;DHT22;54904;54.350;18.664;2022-07-22T09:07:25;25.40;99.90
18321;DHT22;54904;54.350;18.664;2022-07-22T09:09:54;25.40;99.90
18321;DHT22;54904;54.350;18.664;2022-07-22T09:12:51;25.50;99.90
18321;DHT22;54904;54.350;18.664;2022-07-22T09:15:45;25.60;99.90
18321;DHT22;54904;54.350;18.664;2022-07-22T09:18:44;25.60;99.90
18321;DHT22;54904;54.350;18.664;2022-07-22T09:21:30;25.70;99.90
18321;DHT22;54904;54.350;18.664;2022-07-22T09:24:27;25.80;99.90
18321;DHT22;54904;54.350;18.664;2022-07-22T09:26:57;25.90;99.90
18321;DHT22;54904;54.350;18.664;2022-07-22T09:29:30;26.00;99.90
18321;DHT22;54904;54.350;18.664;2022-07-22T09:32:16;26.10;99.90
18321;DHT22;54904;54.350;18.664;2022-07-22T09:35:07;26.20;99.90
18321;DHT22;54904;54.350;18.664;2022-07-22T09:37:52;26.30;99.90
18321;DHT22;54904;54.350;18.664;2022-07-22T09:40:23;26.40;99.90
18321;DHT22;54904;54.350;18.664;2022-07-22T09:42:52;26.50;99.90
18321;DHT22;54904;54.350;18.664;2022-07-22T09:45:21;26.50;99.90
18321;DHT22;54904;54.350;18.664;2022-07-22T09:47:49;26.60;99.90
18321;DHT22;54904;54.350;18.664;2022-07-22T09:50:49;26.70;99.90
18321;DHT22;54904;54.350;18.664;2022-07-22T09:53:29;26.80;99.90
18321;DHT22;54904;54.350;18.664;2022-07-22T09:56:18;26.80;99.90
18321;DHT22;54904;54.350;18.664;2022-07-22T09:58:46;26.90;99.90
18321;DHT22;54904;54.350;18.664;2022-07-22T10:01:21;26.90;99.90
18321;DHT22;54904;54.350;18.664;2022-07-22T10:03:50;26.90;99.90
18321;DHT22;54904;54.350;18.664;2022-07-22T10:06:18;27.00;99.90
18321;DHT22;54904;54.350;18.664;2022-07-22T10:08:47;27.00;99.90
18321;DHT22;54904;54.350;18.664;2022-07-22T10:11:15;27.10;99.90
18321;DHT22;54904;54.350;18.664;2022-07-22T10:13:45;27.10;99.90
18321;DHT22;54904;54.350;18.664;2022-07-22T10:16:13;27.20;99.90
18321;DHT22;54904;54.350;18.664;2022-07-22T10:18:44;27.30;99.90
18321;DHT22;54904;54.350;18.664;2022-07-22T10:21:15;27.40;99.90
18321;DHT22;54904;54.350;18.664;2022-07-22T10:24:09;27.40;99.90
18321;DHT22;54904;54.350;18.664;2022-07-22T10:26:51;27.50;99.90
18321;DHT22;54904;54.350;18.664;2022-07-22T10:29:28;27.60;99.80
18321;DHT22;54904;54.350;18.664;2022-07-22T10:32:23;27.70;99.50
18321;DHT22;54904;54.350;18.664;2022-07-22T10:38:04;27.80;99.10
18321;DHT22;54904;54.350;18.664;2022-07-22T10:40:45;27.90;98.80
18321;DHT22;54904;54.350;18.664;2022-07-22T10:43:13;27.90;98.50
18321;DHT22;54904;54.350;18.664;2022-07-22T10:45:46;28.00;98.40
18321;DHT22;54904;54.350;18.664;2022-07-22T10:48:15;28.10;98.30
18321;DHT22;54904;54.350;18.664;2022-07-22T10:50:49;28.20;98.20
18321;DHT22;54904;54.350;18.664;2022-07-22T10:53:18;28.20;97.90
18321;DHT22;54904;54.350;18.664;2022-07-22T10:56:05;28.30;97.70
18321;DHT22;54904;54.350;18.664;2022-07-22T10:58:47;28.30;97.70
18321;DHT22;54904;54.350;18.664;2022-07-22T11:01:17;28.40;97.90
18321;DHT22;54904;54.350;18.664;2022-07-22T11:03:46;28.40;97.60
18321;DHT22;54904;54.350;18.664;2022-07-22T11:09:03;28.50;97.60
18321;DHT22;54904;54.350;18.664;2022-07-22T11:11:32;28.60;97.40
18321;DHT22;54904;54.350;18.664;2022-07-22T11:14:00;28.70;97.60
18321;DHT22;54904;54.350;18.664;2022-07-22T11:16:28;28.80;97.50
18321;DHT22;54904;54.350;18.664;2022-07-22T11:18:58;28.90;97.20
18321;DHT22;54904;54.350;18.664;2022-07-22T11:21:27;28.90;97.10
18321;DHT22;54904;54.350;18.664;2022-07-22T11:23:56;28.90;97.00
18321;DHT22;54904;54.350;18.664;2022-07-22T11:26:26;29.00;96.90
18321;DHT22;54904;54.350;18.664;2022-07-22T11:28:58;29.00;96.40
18321;DHT22;54904;54.350;18.664;2022-07-22T11:31:27;29.00;95.90
18321;DHT22;54904;54.350;18.664;2022-07-22T11:34:05;29.00;95.70
18321;DHT22;54904;54.350;18.664;2022-07-22T11:36:33;29.00;95.50
18321;DHT22;54904;54.350;18.664;2022-07-22T11:39:00;29.00;95.40
18321;DHT22;54904;54.350;18.664;2022-07-22T11:41:29;29.10;95.40
18321;DHT22;54904;54.350;18.664;2022-07-22T11:43:58;29.10;95.20
18321;DHT22;54904;54.350;18.664;2022-07-22T11:46:26;29.20;95.20
18321;DHT22;54904;54.350;18.664;2022-07-22T11:48:55;29.30;95.00
18321;DHT22;54904;54.350;18.664;2022-07-22T11:51:29;29.40;94.90
18321;DHT22;54904;54.350;18.664;2022-07-22T11:53:57;29.50;94.50
18321;DHT22;54904;54.350;18.664;2022-07-22T11:56:25;29.50;94.30
18321;DHT22;54904;54.350;18.664;2022-07-22T11:58:53;29.40;93.90
18321;DHT22;54904;54.350;18.664;2022-07-22T12:01:22;29.30;94.00
18321;DHT22;54904;54.350;18.664;2022-07-22T12:03:51;29.30;93.80
18321;DHT22;54904;54.350;18.664;2022-07-22T12:06:21;29.20;93.80
18321;DHT22;54904;54.350;18.664;2022-07-22T12:08:51;29.10;93.80
18321;DHT22;54904;54.350;18.664;2022-07-22T12:11:21;29.10;93.80
18321;DHT22;54904;54.350;18.664;2022-07-22T12:13:50;29.00;93.60
18321;DHT22;54904;54.350;18.664;2022-07-22T12:16:20;29.00;93.40
18321;DHT22;54904;54.350;18.664;2022-07-22T12:18:53;28.90;93.30
18321;DHT22;54904;54.350;18.664;2022-07-22T12:21:23;28.80;93.30
18321;DHT22;54904;54.350;18.664;2022-07-22T12:23:56;28.80;93.30
18321;DHT22;54904;54.350;18.664;2022-07-22T12:26:44;28.80;93.20
18321;DHT22;54904;54.350;18.664;2022-07-22T12:29:16;28.70;93.20
18321;DHT22;54904;54.350;18.664;2022-07-22T12:31:44;28.70;93.10
18321;DHT22;54904;54.350;18.664;2022-07-22T12:34:11;28.60;93.00
18321;DHT22;54904;54.350;18.664;2022-07-22T12:36:43;28.60;92.90
18321;DHT22;54904;54.350;18.664;2022-07-22T12:39:17;28.60;92.80
18321;DHT22;54904;54.350;18.664;2022-07-22T12:41:47;28.60;92.70
18321;DHT22;54904;54.350;18.664;2022-07-22T12:44:19;28.60;92.60
18321;DHT22;54904;54.350;18.664;2022-07-22T12:46:47;28.70;92.40
18321;DHT22;54904;54.350;18.664;2022-07-22T12:49:16;28.80;92.20
18321;DHT22;54904;54.350;18.664;2022-07-22T12:52:05;28.80;92.30
18321;DHT22;54904;54.350;18.664;2022-07-22T12:54:33;28.90;92.40
18321;DHT22;54904;54.350;18.664;2022-07-22T12:57:01;29.00;92.50
18321;DHT22;54904;54.350;18.664;2022-07-22T12:59:28;29.10;92.80
18321;DHT22;54904;54.350;18.664;2022-07-22T13:01:55;29.00;93.50
18321;DHT22;54904;54.350;18.664;2022-07-22T13:04:22;29.00;93.90
18321;DHT22;54904;54.350;18.664;2022-07-22T13:06:50;28.90;94.20
18321;DHT22;54904;54.350;18.664;2022-07-22T13:09:19;28.80;94.40
18321;DHT22;54904;54.350;18.664;2022-07-22T13:11:46;28.80;94.90
18321;DHT22;54904;54.350;18.664;2022-07-22T13:14:14;28.70;94.80
18321;DHT22;54904;54.350;18.664;2022-07-22T13:16:41;28.70;94.90
18321;DHT22;54904;54.350;18.664;2022-07-22T13:19:08;28.60;95.00
18321;DHT22;54904;54.350;18.664;2022-07-22T13:21:35;28.50;95.60
18321;DHT22;54904;54.350;18.664;2022-07-22T13:24:03;28.50;95.30
18321;DHT22;54904;54.350;18.664;2022-07-22T13:26:31;28.40;95.30
18321;DHT22;54904;54.350;18.664;2022-07-22T13:28:58;28.40;95.30
18321;DHT22;54904;54.350;18.664;2022-07-22T13:31:25;28.30;95.30
18321;DHT22;54904;54.350;18.664;2022-07-22T13:33:53;28.30;95.40
18321;DHT22;54904;54.350;18.664;2022-07-22T13:36:20;28.30;95.50
18321;DHT22;54904;54.350;18.664;2022-07-22T13:38:49;28.40;95.90
18321;DHT22;54904;54.350;18.664;2022-07-22T13:41:17;28.30;95.70
18321;DHT22;54904;54.350;18.664;2022-07-22T13:43:46;28.30;96.00
18321;DHT22;54904;54.350;18.664;2022-07-22T13:46:15;28.20;96.70
18321;DHT22;54904;54.350;18.664;2022-07-22T13:48:42;28.10;97.30
18321;DHT22;54904;54.350;18.664;2022-07-22T13:51:10;28.00;97.40
18321;DHT22;54904;54.350;18.664;2022-07-22T13:53:37;28.00;97.60
18321;DHT22;54904;54.350;18.664;2022-07-22T13:56:04;28.00;97.80
18321;DHT22;54904;54.350;18.664;2022-07-22T13:58:32;27.90;98.10
18321;DHT22;54904;54.350;18.664;2022-07-22T14:01:01;27.90;98.20
18321;DHT22;54904;54.350;18.664;2022-07-22T14:03:28;27.90;98.20
18321;DHT22;54904;54.350;18.664;2022-07-22T14:05:55;27.90;98.20
18321;DHT22;54904;54.350;18.664;2022-07-22T14:08:22;27.90;98.40
18321;DHT22;54904;54.350;18.664;2022-07-22T14:10:49;27.90;98.50
18321;DHT22;54904;54.350;18.664;2022-07-22T14:13:16;27.90;98.60
18321;DHT22;54904;54.350;18.664;2022-07-22T14:15:43;27.90;98.60
18321;DHT22;54904;54.350;18.664;2022-07-22T14:18:12;27.90;98.50
18321;DHT22;54904;54.350;18.664;2022-07-22T14:20:39;27.80;98.30
18321;DHT22;54904;54.350;18.664;2022-07-22T14:23:07;27.80;98.20
18321;DHT22;54904;54.350;18.664;2022-07-22T14:25:35;27.70;98.30
18321;DHT22;54904;54.350;18.664;2022-07-22T14:28:03;27.60;98.30
18321;DHT22;54904;54.350;18.664;2022-07-22T14:30:30;27.60;98.40
18321;DHT22;54904;54.350;18.664;2022-07-22T14:32:57;27.50;98.30
18321;DHT22;54904;54.350;18.664;2022-07-22T14:35:27;27.50;98.20
18321;DHT22;54904;54.350;18.664;2022-07-22T14:37:55;27.50;98.20
18321;DHT22;54904;54.350;18.664;2022-07-22T14:40:22;27.50;98.20
18321;DHT22;54904;54.350;18.664;2022-07-22T14:42:49;27.50;98.10
18321;DHT22;54904;54.350;18.664;2022-07-22T14:45:16;27.50;98.00
18321;DHT22;54904;54.350;18.664;2022-07-22T14:47:43;27.60;97.90
18321;DHT22;54904;54.350;18.664;2022-07-22T14:50:10;27.60;97.80
18321;DHT22;54904;54.350;18.664;2022-07-22T14:52:38;27.60;97.70
18321;DHT22;54904;54.350;18.664;2022-07-22T14:55:06;27.70;97.60
18321;DHT22;54904;54.350;18.664;2022-07-22T14:57:33;27.70;97.40
18321;DHT22;54904;54.350;18.664;2022-07-22T15:00:00;27.70;97.20
18321;DHT22;54904;54.350;18.664;2022-07-22T15:02:27;27.70;97.20
18321;DHT22;54904;54.350;18.664;2022-07-22T15:04:54;27.70;97.20
18321;DHT22;54904;54.350;18.664;2022-07-22T15:07:21;27.80;97.20
18321;DHT22;54904;54.350;18.664;2022-07-22T15:09:50;27.80;97.20
18321;DHT22;54904;54.350;18.664;2022-07-22T15:12:17;27.80;97.10
18321;DHT22;54904;54.350;18.664;2022-07-22T15:14:44;27.80;97.10
18321;DHT22;54904;54.350;18.664;2022-07-22T15:17:11;27.90;97.00
18321;DHT22;54904;54.350;18.664;2022-07-22T15:19:38;27.90;97.00
18321;DHT22;54904;54.350;18.664;2022-07-22T15:22:05;27.90;96.80
18321;DHT22;54904;54.350;18.664;2022-07-22T15:24:32;27.90;96.50
18321;DHT22;54904;54.350;18.664;2022-07-22T15:27:00;27.80;96.30
18321;DHT22;54904;54.350;18.664;2022-07-22T15:29:28;27.80;96.20
18321;DHT22;54904;54.350;18.664;2022-07-22T15:31:55;27.80;96.20
18321;DHT22;54904;54.350;18.664;2022-07-22T15:34:22;27.80;96.10
18321;DHT22;54904;54.350;18.664;2022-07-22T15:36:49;27.80;96.00
18321;DHT22;54904;54.350;18.664;2022-07-22T15:39:16;27.80;96.00
18321;DHT22;54904;54.350;18.664;2022-07-22T15:41:43;27.80;96.00